Yonkers, New York
Current Conditions -  °F | °C
As of 12:51 PM on Thursday 30 Oct 2014 (Local Time) from KTEB Reporting Station
Few Clouds Few Clouds  
Wind Chill: 56°   Ceiling: Unl
Heat Index: 56°   Visibility: 10mi
Dew Point: 37°   Wind: 12mph
Humidity: 49%   Direction: 330°NNW
Pressure: 29.98"   Gusts: NA
Location:  40.93°N, 73.9°W
Report Text: KTEB 301651Z 33010KT 10SM FEW042 13/03 A2998 RMK AO2 SLP153 T01330028
Loading
Personal Weather Stations






























Interactive Weather Map
Tropical Storm Tracking
New forecast layout! Learn more

10-Day Weather Forecast

Advertisements
Track Severe Weather on mobile